Bloomer, WI (54724)

2:30 AM CST on December 04, 2016 (GMT -0600)
North Side Bloomer | | Change Station

Elev 1010 ft 45.11 °N, 91.49 °W | Updated 29 seconds ago

Overcast
Overcast
30.2 °F
Feels Like 30 °F
N
0.0
Wind Variable Wind from ESE
Gusts 0.0 mph

Today
High -- | Low -- °F
--% Chance of Precip.
Yesterday
High -- | Low -- °F
Precip. -- in
Pressure 30.17 in
Visibility 10.0 miles
Clouds Overcast 2400 ft
Windchill 30 °F
Dew Point 24 °F
Humidity 78%
Rainfall 0.00 in
Snow Depth Not available.
7:28 AM 4:24 PM
Waxing Crescent, 21% visible
METAR KEAU 040756Z AUTO 14005KT 10SM OVC024 M01/M04 A3013 RMK AO2 SLP216 T10061044
Pressure 30.17 in
Visibility 10.0 miles
Clouds Overcast 2400 ft
Windchill 30 °F
Dew Point 24 °F
Humidity 78%
Rainfall 0.00 in
Snow Depth Not available.
7:28 AM 4:24 PM
Waxing Crescent, 21% visible
METAR KEAU 040756Z AUTO 14005KT 10SM OVC024 M01/M04 A3013 RMK AO2 SLP216 T10061044

10-Day Weather Forecast

Almanac

Astronomy

Dec. 04, 2016 Rise Set
Actual Time
Civil Twilight
Nautical Twilight
Astronomical Twilight
Moon
Length of Visible Light
Length of Day
Tomorrow will be .
, % of the Moon is Illuminated

Today's Extremes

State Highs State Lows

Community

WunderPhotos

Upload Photos

1,955,587 photos uploaded!

WunderBlog® & News

Nearby

Air Quality

  Air Quality AQ Index Pollutant
Not available.

Snow Depth

Station Depth Elevation

Earthquake Activity

City Distance Mag. Time & Date
Minimum magnitude displayed is 2.5.

Coastal Water Temperatures

Place Temperature

Stations

Nearby Weather Stations

Station Location Temp. Windchill Dew Point Humidity Wind Precip. Elev Updated Type
                   

Watches & Warnings

There are currently no watches in effect.